createdAt,value
2018-02-15T00:02:00.588Z,-2.40
2018-02-15T00:04:26.872Z,-2.50
2018-02-15T00:06:53.101Z,-2.50
2018-02-15T00:09:19.338Z,-2.50
2018-02-15T00:11:45.627Z,-2.60
2018-02-15T00:14:11.913Z,-2.60
2018-02-15T00:16:38.204Z,-2.70
2018-02-15T00:19:04.821Z,-2.70
2018-02-15T00:21:31.488Z,-2.70
2018-02-15T00:23:58.182Z,-2.70
2018-02-15T00:26:24.417Z,-2.70
2018-02-15T00:28:50.696Z,-2.70
2018-02-15T00:31:16.937Z,-2.60
2018-02-15T00:33:43.168Z,-2.60
2018-02-15T00:36:09.386Z,-2.60
2018-02-15T00:38:35.786Z,-2.60
2018-02-15T00:41:02.359Z,-2.60
2018-02-15T00:43:28.561Z,-2.60
2018-02-15T00:45:55.160Z,-2.60
2018-02-15T00:48:21.463Z,-2.60
2018-02-15T00:50:47.676Z,-2.60
2018-02-15T00:53:13.987Z,-2.60
2018-02-15T00:55:40.238Z,-2.50
2018-02-15T00:58:06.532Z,-2.50
2018-02-15T01:00:33.244Z,-2.40
2018-02-15T01:02:59.541Z,-2.40
2018-02-15T01:05:25.755Z,-2.30
2018-02-15T01:07:52.055Z,-2.30
2018-02-15T01:10:18.370Z,-2.30
2018-02-15T01:12:44.746Z,-2.30
2018-02-15T01:15:10.925Z,-2.30
2018-02-15T01:17:37.400Z,-2.30
2018-02-15T01:20:03.621Z,-2.30
2018-02-15T01:22:29.852Z,-2.30
2018-02-15T01:24:56.082Z,-2.30
2018-02-15T01:27:22.282Z,-2.30
2018-02-15T01:29:48.644Z,-2.20
2018-02-15T01:32:14.826Z,-2.10
2018-02-15T01:34:41.080Z,-2.10
2018-02-15T01:37:07.356Z,-2.10
2018-02-15T01:39:33.706Z,-2.10
2018-02-15T01:42:00.037Z,-2.10
2018-02-15T01:44:26.341Z,-2.00
2018-02-15T01:46:59.544Z,-2.00
2018-02-15T01:49:25.794Z,-1.90
2018-02-15T01:51:52.223Z,-1.90
2018-02-15T01:54:18.488Z,-1.90
2018-02-15T01:56:45.126Z,-2.00
2018-02-15T01:59:11.440Z,-2.00
2018-02-15T02:01:37.757Z,-1.90
2018-02-15T02:04:04.499Z,-1.90
2018-02-15T02:06:30.870Z,-2.00
2018-02-15T02:08:57.072Z,-2.00
2018-02-15T02:11:23.676Z,-1.90
2018-02-15T02:13:49.884Z,-1.90
2018-02-15T02:16:16.071Z,-1.80
2018-02-15T02:18:42.709Z,-1.70
2018-02-15T02:21:09.049Z,-1.70
2018-02-15T02:23:37.894Z,-1.70
2018-02-15T02:26:04.188Z,-1.70
2018-02-15T02:28:30.400Z,-1.60
2018-02-15T02:30:56.586Z,-1.60
2018-02-15T02:33:22.929Z,-1.70
2018-02-15T02:35:49.188Z,-1.70
2018-02-15T02:38:15.455Z,-1.70
2018-02-15T02:40:41.693Z,-1.70
2018-02-15T02:43:07.986Z,-1.70
2018-02-15T02:45:34.186Z,-1.60
2018-02-15T02:48:00.754Z,-1.40
2018-02-15T02:50:27.034Z,-1.40
2018-02-15T02:52:53.710Z,-1.10
2018-02-15T02:55:20.003Z,-1.10
2018-02-15T02:57:46.315Z,-1.00
2018-02-15T03:00:12.556Z,-0.90
2018-02-15T03:02:38.908Z,-0.90
2018-02-15T03:05:05.179Z,-0.90
2018-02-15T03:07:31.365Z,-0.90
2018-02-15T03:09:57.708Z,-1.00
2018-02-15T03:12:23.914Z,-1.00
2018-02-15T03:14:50.578Z,-1.00
2018-02-15T03:17:16.803Z,-1.00
2018-02-15T03:19:42.996Z,-0.90
2018-02-15T03:22:09.255Z,-0.90
2018-02-15T03:24:35.542Z,-0.80
2018-02-15T03:27:01.771Z,-0.80
2018-02-15T03:29:27.980Z,-0.80
2018-02-15T03:31:54.282Z,-0.80
2018-02-15T03:34:20.497Z,-0.80
2018-02-15T03:36:46.702Z,-0.70
2018-02-15T03:39:13.014Z,-0.60
2018-02-15T03:41:39.266Z,-0.50
2018-02-15T03:44:05.886Z,-0.50
2018-02-15T03:46:32.122Z,-0.40
2018-02-15T03:48:58.774Z,-0.60
2018-02-15T03:51:25.356Z,-0.60
2018-02-15T03:53:51.628Z,-0.50
2018-02-15T03:56:18.204Z,-0.70
2018-02-15T03:58:44.487Z,-0.70
2018-02-15T04:01:11.107Z,-0.60
2018-02-15T04:03:37.595Z,-0.60
2018-02-15T04:06:03.916Z,-0.50
2018-02-15T04:08:30.287Z,-0.50
2018-02-15T04:10:56.472Z,-0.50
2018-02-15T04:13:23.100Z,-0.40
2018-02-15T04:15:50.149Z,-0.30
2018-02-15T04:18:16.675Z,-0.10
2018-02-15T04:20:42.922Z,0.00
2018-02-15T04:23:09.168Z,0.00
2018-02-15T04:25:36.392Z,-0.10
2018-02-15T04:28:02.619Z,-0.20
2018-02-15T04:30:28.878Z,-0.30
2018-02-15T04:32:55.240Z,-0.30
2018-02-15T04:35:21.502Z,-0.40
2018-02-15T04:37:47.780Z,-0.40
2018-02-15T04:40:14.063Z,-0.40
2018-02-15T04:42:40.713Z,-0.30
2018-02-15T04:45:06.946Z,-0.30
2018-02-15T04:47:33.224Z,-0.20
2018-02-15T04:49:59.512Z,-0.20
2018-02-15T04:52:25.784Z,-0.20
2018-02-15T04:54:52.132Z,-0.10
2018-02-15T04:57:18.361Z,-0.20
2018-02-15T04:59:44.594Z,-0.20
2018-02-15T05:02:10.878Z,-0.20
2018-02-15T05:04:38.412Z,-0.20
2018-02-15T05:07:04.661Z,-0.10
2018-02-15T05:09:30.985Z,-0.10
2018-02-15T05:11:57.228Z,0.00
2018-02-15T05:14:23.618Z,0.00
2018-02-15T05:16:50.237Z,0.10
2018-02-15T05:19:16.855Z,0.10
2018-02-15T05:21:43.066Z,0.10
2018-02-15T05:24:09.551Z,0.10
2018-02-15T05:26:36.196Z,0.40
2018-02-15T05:29:02.491Z,0.40
2018-02-15T05:31:28.698Z,0.40
2018-02-15T05:33:55.338Z,0.20
2018-02-15T05:36:21.509Z,0.10
2018-02-15T05:38:47.720Z,0.20
2018-02-15T05:41:13.994Z,0.10
2018-02-15T05:43:40.209Z,0.10
2018-02-15T05:46:06.657Z,0.20
2018-02-15T05:48:32.955Z,0.20
2018-02-15T05:50:59.515Z,0.20
2018-02-15T05:53:25.808Z,0.20
2018-02-15T05:55:52.546Z,0.10
2018-02-15T05:58:18.791Z,0.00
2018-02-15T06:00:45.006Z,0.10
2018-02-15T06:03:11.275Z,0.20
2018-02-15T06:05:37.650Z,0.30
2018-02-15T06:08:04.310Z,0.20
2018-02-15T06:10:30.923Z,0.10
2018-02-15T06:12:57.430Z,0.10
2018-02-15T06:15:23.638Z,0.20
2018-02-15T06:17:49.857Z,0.30
2018-02-15T06:20:16.143Z,0.30
2018-02-15T06:22:42.506Z,0.30
2018-02-15T06:25:09.206Z,0.20
2018-02-15T06:27:35.532Z,0.20
2018-02-15T06:30:01.824Z,0.10
2018-02-15T06:32:28.093Z,0.10
2018-02-15T06:34:54.522Z,0.10
2018-02-15T06:37:20.841Z,0.10
2018-02-15T06:39:47.003Z,0.20
2018-02-15T06:42:13.213Z,0.30
2018-02-15T06:44:39.561Z,0.30
2018-02-15T06:47:06.243Z,0.30
2018-02-15T06:49:32.568Z,0.30
2018-02-15T06:51:58.837Z,0.30
2018-02-15T06:54:25.094Z,0.30
2018-02-15T06:56:51.656Z,0.50
2018-02-15T06:59:17.983Z,0.50
2018-02-15T07:01:44.567Z,0.20
2018-02-15T07:04:10.897Z,0.20
2018-02-15T07:06:37.583Z,0.30
2018-02-15T07:09:05.675Z,0.50
2018-02-15T07:11:31.952Z,0.60
2018-02-15T07:13:58.351Z,0.50
2018-02-15T07:16:24.603Z,0.50
2018-02-15T07:18:50.907Z,0.70
2018-02-15T07:21:17.567Z,0.90
2018-02-15T07:23:43.797Z,1.00
2018-02-15T07:26:10.015Z,0.80
2018-02-15T07:28:36.676Z,0.80
2018-02-15T07:31:02.866Z,0.70
2018-02-15T07:33:29.064Z,0.70
2018-02-15T07:35:55.379Z,0.90
2018-02-15T07:38:21.637Z,0.80
2018-02-15T07:40:47.871Z,0.50
2018-02-15T07:43:14.170Z,0.60
2018-02-15T07:45:40.679Z,0.70
2018-02-15T07:48:08.240Z,0.60
2018-02-15T07:50:34.498Z,0.50
2018-02-15T07:53:00.769Z,0.60
2018-02-15T07:55:27.091Z,0.60
2018-02-15T07:57:53.453Z,0.60
2018-02-15T08:00:19.835Z,0.60
2018-02-15T08:02:46.053Z,0.70
2018-02-15T08:05:12.754Z,0.70
2018-02-15T08:07:39.020Z,0.80
2018-02-15T08:10:05.264Z,0.70
2018-02-15T08:12:31.480Z,0.80
2018-02-15T08:14:57.730Z,0.80
2018-02-15T08:17:24.190Z,0.80
2018-02-15T08:19:50.364Z,0.90
2018-02-15T08:22:16.553Z,0.80
2018-02-15T08:24:42.779Z,0.80
2018-02-15T08:27:08.959Z,0.90
2018-02-15T08:29:35.261Z,0.90
2018-02-15T08:32:01.669Z,1.00
2018-02-15T08:34:27.909Z,1.40
2018-02-15T08:36:54.524Z,1.50
2018-02-15T08:39:20.748Z,1.50
2018-02-15T08:41:47.001Z,1.50
2018-02-15T08:44:13.251Z,1.60
2018-02-15T08:46:39.445Z,1.60
2018-02-15T08:49:05.679Z,1.70
2018-02-15T08:51:31.957Z,1.80
2018-02-15T08:53:58.277Z,1.90
2018-02-15T08:56:24.596Z,2.00
2018-02-15T08:58:51.120Z,1.60
2018-02-15T09:01:17.796Z,1.00
2018-02-15T09:03:44.071Z,1.00
2018-02-15T09:06:10.372Z,1.30
2018-02-15T09:08:37.189Z,1.30
2018-02-15T09:11:03.502Z,1.30
2018-02-15T09:13:29.874Z,1.30
2018-02-15T09:15:56.214Z,1.10
2018-02-15T09:18:22.479Z,1.10
2018-02-15T09:20:48.744Z,1.30
2018-02-15T09:23:15.177Z,1.70
2018-02-15T09:25:41.418Z,1.70
2018-02-15T09:28:07.819Z,1.60
2018-02-15T09:30:34.080Z,1.20
2018-02-15T09:33:00.424Z,1.40
2018-02-15T09:35:26.699Z,1.70
2018-02-15T09:37:52.979Z,1.80
2018-02-15T09:40:19.663Z,1.40
2018-02-15T09:42:46.332Z,1.40
2018-02-15T09:45:12.732Z,1.40
2018-02-15T09:47:39.368Z,1.40
2018-02-15T09:50:05.956Z,1.40
2018-02-15T09:52:32.643Z,1.40
2018-02-15T09:54:59.412Z,1.50
2018-02-15T09:57:25.676Z,1.50
2018-02-15T09:59:51.997Z,1.80
2018-02-15T10:02:18.659Z,1.70
2018-02-15T10:04:44.866Z,1.70
2018-02-15T10:07:11.140Z,1.80
2018-02-15T10:09:37.791Z,1.50
2018-02-15T10:12:03.992Z,1.50
2018-02-15T10:14:31.017Z,1.60
2018-02-15T10:16:57.262Z,1.60
2018-02-15T10:19:23.512Z,1.60
2018-02-15T10:21:49.741Z,1.50
2018-02-15T10:24:16.029Z,1.70
2018-02-15T10:26:42.348Z,1.70
2018-02-15T10:29:08.608Z,1.40
2018-02-15T10:31:34.860Z,1.20
2018-02-15T10:34:01.116Z,1.20
2018-02-15T10:36:27.391Z,1.10
2018-02-15T10:38:53.664Z,1.20
2018-02-15T10:41:19.912Z,1.20
2018-02-15T10:43:46.156Z,1.00
2018-02-15T10:46:12.379Z,1.00
2018-02-15T10:48:38.688Z,1.20
2018-02-15T10:51:04.975Z,1.50
2018-02-15T10:53:31.571Z,1.80
2018-02-15T10:55:57.852Z,1.80
2018-02-15T10:58:24.168Z,2.00
2018-02-15T11:00:56.776Z,2.40
2018-02-15T11:03:29.018Z,2.40
2018-02-15T11:05:59.549Z,2.20
2018-02-15T11:08:25.815Z,2.10
2018-02-15T11:10:52.043Z,2.10
2018-02-15T11:13:18.365Z,2.40
2018-02-15T11:15:44.623Z,2.40
2018-02-15T11:18:11.333Z,2.30
2018-02-15T11:20:37.565Z,2.10
2018-02-15T11:23:03.802Z,2.30
2018-02-15T11:25:30.084Z,2.40
2018-02-15T11:27:56.337Z,2.30
2018-02-15T11:30:22.602Z,2.40
2018-02-15T11:32:48.900Z,2.40
2018-02-15T11:35:15.185Z,2.30
2018-02-15T11:37:41.455Z,2.10
2018-02-15T11:40:07.766Z,2.20
2018-02-15T11:42:34.454Z,2.70
2018-02-15T11:45:00.684Z,2.70
2018-02-15T11:47:26.981Z,2.40
2018-02-15T11:49:53.302Z,2.20
2018-02-15T11:52:19.553Z,1.70
2018-02-15T11:54:46.176Z,1.90
2018-02-15T11:57:12.746Z,2.50
2018-02-15T11:59:39.048Z,2.40
2018-02-15T12:02:06.255Z,2.50
2018-02-15T12:04:32.575Z,2.60
2018-02-15T12:06:58.840Z,3.00
2018-02-15T12:09:25.120Z,3.10
2018-02-15T12:11:51.365Z,3.20
2018-02-15T12:14:17.625Z,3.20
2018-02-15T12:16:44.289Z,2.90
2018-02-15T12:19:10.591Z,2.90
2018-02-15T12:21:36.877Z,3.00
2018-02-15T12:24:03.167Z,3.30
2018-02-15T12:26:29.400Z,3.40
2018-02-15T12:28:55.699Z,3.20
2018-02-15T12:31:22.344Z,3.60
2018-02-15T12:33:48.645Z,3.60
2018-02-15T12:36:14.858Z,3.60
2018-02-15T12:38:41.182Z,3.50
2018-02-15T12:41:07.409Z,3.50
2018-02-15T12:43:33.634Z,3.40
2018-02-15T12:45:59.913Z,3.50
2018-02-15T12:48:26.142Z,3.30
2018-02-15T12:50:52.408Z,3.50
2018-02-15T12:53:18.683Z,3.60
2018-02-15T12:55:46.884Z,3.50
2018-02-15T12:58:13.211Z,3.50
2018-02-15T13:00:39.566Z,3.70
2018-02-15T13:03:05.898Z,3.50
2018-02-15T13:05:32.151Z,3.50
2018-02-15T13:07:58.770Z,3.50
2018-02-15T13:10:25.002Z,3.40
2018-02-15T13:13:03.272Z,3.50
2018-02-15T13:15:41.979Z,3.70
2018-02-15T13:18:08.242Z,3.70
2018-02-15T13:20:34.499Z,3.90
2018-02-15T13:23:00.762Z,4.00
2018-02-15T13:25:27.006Z,3.60
2018-02-15T13:28:05.637Z,3.80
2018-02-15T13:30:31.854Z,3.90
2018-02-15T13:32:58.492Z,3.70
2018-02-15T13:35:25.110Z,3.60
2018-02-15T13:37:52.740Z,3.80
2018-02-15T13:40:19.068Z,3.80
2018-02-15T13:42:46.501Z,4.00
2018-02-15T13:45:13.082Z,4.00
2018-02-15T13:47:39.317Z,3.80
2018-02-15T13:50:05.619Z,3.70
2018-02-15T13:52:32.011Z,3.80
2018-02-15T13:54:58.337Z,3.80
2018-02-15T13:57:24.550Z,3.80
2018-02-15T13:59:51.210Z,4.00
2018-02-15T14:02:17.485Z,4.00
2018-02-15T14:04:43.789Z,4.20
2018-02-15T14:07:10.082Z,4.50
2018-02-15T14:09:36.744Z,3.90
2018-02-15T14:12:02.998Z,3.90
2018-02-15T14:14:29.243Z,3.70
2018-02-15T14:16:55.569Z,3.80
2018-02-15T14:19:21.916Z,3.90
2018-02-15T14:21:48.202Z,3.80
2018-02-15T14:24:14.988Z,3.80
2018-02-15T14:26:41.315Z,4.00
2018-02-15T14:29:07.622Z,4.10
2018-02-15T14:31:33.903Z,4.20
2018-02-15T14:34:00.187Z,4.10
2018-02-15T14:36:26.459Z,3.90
2018-02-15T14:38:53.179Z,3.70
2018-02-15T14:41:19.446Z,3.70
2018-02-15T14:43:45.663Z,3.60
2018-02-15T14:46:11.965Z,3.80
2018-02-15T14:48:38.200Z,4.20
2018-02-15T14:51:04.864Z,3.90
2018-02-15T14:53:31.162Z,4.00
2018-02-15T14:55:57.457Z,4.00
2018-02-15T14:58:23.727Z,4.20
2018-02-15T15:00:50.748Z,3.90
2018-02-15T15:03:17.015Z,3.90
2018-02-15T15:05:43.593Z,4.00
2018-02-15T15:08:09.853Z,4.10
2018-02-15T15:10:36.123Z,4.10
2018-02-15T15:13:02.360Z,4.10
2018-02-15T15:15:28.731Z,4.20
2018-02-15T15:17:54.989Z,4.40
2018-02-15T15:20:21.256Z,4.50
2018-02-15T15:22:47.536Z,4.30
2018-02-15T15:25:14.239Z,4.30
2018-02-15T15:27:40.490Z,4.30
2018-02-15T15:30:06.743Z,4.00
2018-02-15T15:32:33.317Z,3.70
2018-02-15T15:34:59.604Z,3.70
2018-02-15T15:37:26.239Z,3.70
2018-02-15T15:39:52.914Z,3.90
2018-02-15T15:42:19.225Z,3.90
2018-02-15T15:44:45.488Z,4.10
2018-02-15T15:47:11.765Z,4.20
2018-02-15T15:49:38.392Z,4.20
2018-02-15T15:52:04.705Z,4.20
2018-02-15T15:54:31.005Z,4.30
2018-02-15T15:56:57.345Z,4.20
2018-02-15T15:59:23.753Z,4.10
2018-02-15T16:01:50.669Z,4.20
2018-02-15T16:04:17.020Z,4.40
2018-02-15T16:06:43.618Z,4.50
2018-02-15T16:09:09.910Z,4.40
2018-02-15T16:11:36.262Z,4.00
2018-02-15T16:14:02.562Z,4.00
2018-02-15T16:16:28.790Z,4.00
2018-02-15T16:18:55.057Z,3.90
2018-02-15T16:21:21.320Z,3.80
2018-02-15T16:23:47.539Z,3.80
2018-02-15T16:26:13.785Z,4.00
2018-02-15T16:28:40.391Z,4.00
2018-02-15T16:31:06.619Z,4.00
2018-02-15T16:33:32.850Z,4.00
2018-02-15T16:35:59.596Z,4.00
2018-02-15T16:38:26.243Z,4.00
2018-02-15T16:40:52.834Z,4.20
2018-02-15T16:43:19.167Z,4.20
2018-02-15T16:45:45.421Z,4.40
2018-02-15T16:48:11.627Z,4.60
2018-02-15T16:50:37.940Z,4.50
2018-02-15T16:53:04.302Z,4.50
2018-02-15T16:55:30.626Z,4.50
2018-02-15T16:57:56.880Z,4.60
2018-02-15T17:00:23.182Z,4.50
2018-02-15T17:02:50.151Z,4.50
2018-02-15T17:05:16.812Z,4.50
2018-02-15T17:07:43.094Z,4.50
2018-02-15T17:10:09.398Z,4.20
2018-02-15T17:12:35.731Z,4.40
2018-02-15T17:15:02.033Z,4.40
2018-02-15T17:17:28.303Z,4.20
2018-02-15T17:19:54.554Z,4.40
2018-02-15T17:22:21.483Z,4.20
2018-02-15T17:24:47.716Z,4.20
2018-02-15T17:27:13.984Z,4.20
2018-02-15T17:29:40.194Z,4.10
2018-02-15T17:32:06.495Z,4.30
2018-02-15T17:34:39.781Z,4.40
2018-02-15T17:37:06.890Z,4.40
2018-02-15T17:39:33.141Z,4.50
2018-02-15T17:41:59.381Z,4.60
2018-02-15T17:44:25.636Z,4.60
2018-02-15T17:46:51.862Z,4.70
2018-02-15T17:49:18.187Z,4.90
2018-02-15T17:51:44.505Z,4.80
2018-02-15T17:54:10.869Z,4.90
2018-02-15T17:56:37.242Z,4.50
2018-02-15T17:59:03.499Z,4.50
2018-02-15T18:01:29.772Z,4.60
2018-02-15T18:03:56.415Z,4.50
2018-02-15T18:06:22.708Z,4.50
2018-02-15T18:08:48.972Z,4.60
2018-02-15T18:11:15.567Z,4.70
2018-02-15T18:13:41.822Z,4.70
2018-02-15T18:16:08.599Z,4.50
2018-02-15T18:18:34.846Z,4.50
2018-02-15T18:21:01.201Z,4.60
2018-02-15T18:23:27.460Z,4.60
2018-02-15T18:25:53.851Z,4.40
2018-02-15T18:28:20.128Z,4.50
2018-02-15T18:30:46.409Z,4.50
2018-02-15T18:33:12.675Z,4.60
2018-02-15T18:35:39.408Z,4.50
2018-02-15T18:38:06.733Z,4.50
2018-02-15T18:40:33.120Z,4.40
2018-02-15T18:42:59.431Z,4.30
2018-02-15T18:45:25.736Z,4.40
2018-02-15T18:47:52.155Z,4.40
2018-02-15T18:50:18.456Z,4.40
2018-02-15T18:52:44.812Z,4.60
2018-02-15T18:55:11.126Z,4.60
2018-02-15T18:57:37.450Z,4.60
2018-02-15T19:00:03.784Z,4.60
2018-02-15T19:02:30.472Z,4.60
2018-02-15T19:04:57.125Z,4.70
2018-02-15T19:07:23.846Z,4.70
2018-02-15T19:09:50.105Z,4.60
2018-02-15T19:12:16.346Z,4.60
2018-02-15T19:14:42.645Z,4.60
2018-02-15T19:17:08.928Z,4.60
2018-02-15T19:19:35.298Z,4.70
2018-02-15T19:22:01.977Z,4.90
2018-02-15T19:24:28.230Z,4.90
2018-02-15T19:26:54.534Z,5.00
2018-02-15T19:29:21.062Z,4.80
2018-02-15T19:31:47.392Z,4.80
2018-02-15T19:34:13.686Z,4.80
2018-02-15T19:36:40.060Z,4.80
2018-02-15T19:39:06.558Z,4.70
2018-02-15T19:41:33.193Z,4.60
2018-02-15T19:43:59.482Z,4.60
2018-02-15T19:46:25.743Z,4.50
2018-02-15T19:48:52.075Z,4.30
2018-02-15T19:51:18.311Z,4.40
2018-02-15T19:53:44.992Z,4.70
2018-02-15T19:56:11.248Z,4.70
2018-02-15T19:58:37.902Z,4.80
2018-02-15T20:01:04.244Z,4.80
2018-02-15T20:03:30.544Z,5.00
2018-02-15T20:05:56.829Z,4.80
2018-02-15T20:08:23.073Z,4.70
2018-02-15T20:10:49.408Z,4.70
2018-02-15T20:13:15.676Z,4.70
2018-02-15T20:15:46.398Z,5.00
2018-02-15T20:18:12.678Z,5.10
2018-02-15T20:20:39.353Z,5.10
2018-02-15T20:23:05.724Z,5.10
2018-02-15T20:25:32.046Z,5.10
2018-02-15T20:28:05.184Z,5.10
2018-02-15T20:30:31.436Z,5.00
2018-02-15T20:32:57.707Z,5.10
2018-02-15T20:35:24.034Z,5.20
2018-02-15T20:37:56.487Z,5.20
2018-02-15T20:40:28.939Z,5.20
2018-02-15T20:42:55.205Z,5.10
2018-02-15T20:45:22.452Z,4.90
2018-02-15T20:47:49.855Z,4.60
2018-02-15T20:50:22.527Z,4.60
2018-02-15T20:53:01.642Z,4.60
2018-02-15T20:55:33.835Z,4.80
2018-02-15T20:58:00.083Z,4.80
2018-02-15T21:00:26.554Z,4.70
2018-02-15T21:02:53.180Z,4.60
2018-02-15T21:05:19.758Z,4.60
2018-02-15T21:07:46.116Z,4.70
2018-02-15T21:10:12.406Z,4.70
2018-02-15T21:12:39.408Z,4.90
2018-02-15T21:15:06.128Z,5.00
2018-02-15T21:17:32.374Z,5.00
2018-02-15T21:19:58.600Z,5.00
2018-02-15T21:22:25.399Z,5.10
2018-02-15T21:24:51.714Z,5.10
2018-02-15T21:27:18.013Z,5.10
2018-02-15T21:29:44.304Z,5.00
2018-02-15T21:32:10.557Z,4.80
2018-02-15T21:34:37.514Z,4.70
2018-02-15T21:37:03.813Z,4.80
2018-02-15T21:39:30.127Z,4.80
2018-02-15T21:41:56.409Z,4.70
2018-02-15T21:44:22.757Z,5.00
2018-02-15T21:46:49.582Z,5.10
2018-02-15T21:49:15.803Z,5.20
2018-02-15T21:51:42.019Z,5.30
2018-02-15T21:54:08.327Z,5.40
2018-02-15T21:56:34.606Z,5.40
2018-02-15T21:59:00.910Z,5.20
2018-02-15T22:01:27.314Z,5.20
2018-02-15T22:03:53.562Z,5.20
2018-02-15T22:06:19.872Z,5.30
2018-02-15T22:08:46.105Z,5.40
2018-02-15T22:11:12.459Z,5.40
2018-02-15T22:13:39.046Z,5.10
2018-02-15T22:16:05.390Z,4.90
2018-02-15T22:18:31.630Z,5.00
2018-02-15T22:20:57.903Z,5.00
2018-02-15T22:23:24.141Z,5.10
2018-02-15T22:25:50.757Z,5.20
2018-02-15T22:28:17.012Z,5.20
2018-02-15T22:30:43.610Z,5.40
2018-02-15T22:33:09.851Z,5.30
2018-02-15T22:35:36.137Z,5.40
2018-02-15T22:38:02.380Z,5.50
2018-02-15T22:40:28.794Z,5.40
2018-02-15T22:42:55.135Z,5.50
2018-02-15T22:45:21.369Z,5.20
2018-02-15T22:47:47.612Z,5.20
2018-02-15T22:50:13.879Z,5.40
2018-02-15T22:52:40.525Z,5.10
2018-02-15T22:55:09.370Z,5.20
2018-02-15T22:57:35.685Z,5.20
2018-02-15T23:00:01.935Z,5.10
2018-02-15T23:02:28.228Z,5.00
2018-02-15T23:04:54.437Z,5.00
2018-02-15T23:07:21.077Z,4.90
2018-02-15T23:09:47.328Z,5.00
2018-02-15T23:12:13.545Z,5.00
2018-02-15T23:14:39.829Z,5.20
2018-02-15T23:17:06.052Z,5.20
2018-02-15T23:19:32.277Z,5.40
2018-02-15T23:21:58.516Z,5.30
2018-02-15T23:24:24.767Z,5.30
2018-02-15T23:26:51.348Z,5.40
2018-02-15T23:29:17.610Z,5.50
2018-02-15T23:31:43.902Z,5.50
2018-02-15T23:34:10.132Z,5.40
2018-02-15T23:36:37.386Z,5.20
2018-02-15T23:39:03.652Z,5.30
2018-02-15T23:41:29.854Z,5.40
2018-02-15T23:43:56.107Z,5.30
2018-02-15T23:46:22.401Z,5.40
2018-02-15T23:48:48.610Z,5.60
2018-02-15T23:51:14.839Z,5.50
2018-02-15T23:53:41.157Z,5.50
2018-02-15T23:56:08.282Z,5.70
2018-02-15T23:58:34.777Z,5.80
